Time;durP1;ratioP1;P1;durP2;ratioP2;P2;SDS_P1;SDS_P2;PMS_P1;PMS_P2;Temp;Humidity;BMP_temperature;BMP_pressure;BME280_temperature;BME280_humidity;BME280_pressure;Samples;Min_cycle;Max_cycle;Signal;HPM_P1;HPM_P2
2022/04/22 00:01:03;;;;;;;30.57;9.93;;;;;;;9.60;65.31;101133.78;1688156;84;21122;-88
2022/04/22 00:03:30;;;;;;;19.77;9.63;;;;;;;9.54;65.42;101128.31;1692763;83;21031;-88
2022/04/22 00:05:57;;;;;;;25.02;9.75;;;;;;;9.52;65.70;101132.63;1684597;83;21738;-88
2022/04/22 00:08:24;;;;;;;20.43;8.85;;;;;;;9.53;65.76;101133.08;1700460;83;21786;-87
2022/04/22 00:13:36;;;;;;;23.90;9.45;;;;;;;9.51;65.88;101138.70;1680645;85;21055;-91
2022/04/22 00:16:04;;;;;;;22.73;9.03;;;;;;;9.48;66.09;101138.19;1677540;85;21135;-88
2022/04/22 00:18:34;;;;;;;17.57;9.08;;;;;;;9.48;66.18;101131.62;1666938;85;21714;-91
2022/04/22 00:21:01;;;;;;;15.63;8.20;;;;;;;9.48;66.26;101131.62;1659400;85;22473;-91
2022/04/22 00:23:28;;;;;;;16.65;9.58;;;;;;;9.51;66.33;101130.39;1664755;85;21588;-91
2022/04/22 00:25:56;;;;;;;21.68;8.35;;;;;;;9.51;66.31;101127.77;1678166;85;21411;-87
2022/04/22 00:28:23;;;;;;;20.50;8.25;;;;;;;9.52;66.44;101130.88;1677523;85;21074;-88
2022/04/22 00:30:51;;;;;;;21.52;7.78;;;;;;;9.50;66.43;101129.94;1669337;85;21053;-89
2022/04/22 00:33:19;;;;;;;14.07;7.50;;;;;;;9.50;66.48;101128.63;1662866;85;22627;-89
2022/04/22 00:35:46;;;;;;;17.92;8.15;;;;;;;9.51;66.45;101124.25;1661860;85;21294;-87
2022/04/22 00:38:13;;;;;;;17.50;7.30;;;;;;;9.50;66.48;101123.37;1665877;85;21070;-88
2022/04/22 00:40:40;;;;;;;18.92;7.70;;;;;;;9.52;66.49;101124.74;1648103;84;21280;-88
2022/04/22 00:43:23;;;;;;;17.40;8.08;;;;;;;9.52;66.53;101120.37;1668591;85;21118;-91
2022/04/22 00:45:51;;;;;;;15.00;7.08;;;;;;;9.51;66.57;101113.31;1648582;86;22006;-89
2022/04/22 00:48:19;;;;;;;14.93;7.78;;;;;;;9.54;66.54;101117.80;1647931;86;21051;-88
2022/04/22 00:50:46;;;;;;;15.93;7.20;;;;;;;9.54;66.57;101117.38;1676960;85;21075;-90
2022/04/22 00:53:13;;;;;;;24.77;8.23;;;;;;;9.54;66.62;101111.23;1665341;85;21113;-88
2022/04/22 00:55:43;;;;;;;17.15;6.87;;;;;;;9.50;66.60;101118.11;1634180;85;21090;-89
2022/04/22 00:58:09;;;;;;;20.10;7.47;;;;;;;9.49;66.67;101114.99;1630489;85;22060;-89
2022/04/22 01:00:37;;;;;;;20.10;8.70;;;;;;;9.40;66.68;101098.02;1673428;84;21126;-89
2022/04/22 01:03:05;;;;;;;14.40;7.78;;;;;;;9.45;66.75;101117.05;1667242;85;21187;-88
2022/04/22 01:11:03;;;;;;;17.25;7.83;;;;;;;9.46;66.86;101117.93;1675173;83;22939;-90
2022/04/22 01:13:30;;;;;;;16.82;7.25;;;;;;;9.46;66.91;101112.67;1664564;85;21650;-89
2022/04/22 01:15:57;;;;;;;14.90;7.80;;;;;;;9.45;66.98;101113.10;1677415;85;21925;-91
2022/04/22 01:18:24;;;;;;;17.23;7.50;;;;;;;9.43;66.93;101113.47;1680446;85;21124;-90
2022/04/22 01:20:51;;;;;;;18.07;8.08;;;;;;;9.40;66.97;101117.29;1667733;85;21137;-87
2022/04/22 01:23:17;;;;;;;12.63;7.45;;;;;;;9.37;67.05;101115.00;1685250;83;21846;-89
2022/04/22 01:25:44;;;;;;;17.17;7.05;;;;;;;9.34;67.10;101116.66;1682915;84;21047;-90
2022/04/22 01:28:11;;;;;;;17.15;7.37;;;;;;;9.34;67.27;101118.39;1667639;84;21615;-89
2022/04/22 01:30:38;;;;;;;12.75;6.97;;;;;;;9.32;67.24;101113.08;1636194;87;21564;-89
2022/04/22 01:33:05;;;;;;;13.72;7.55;;;;;;;9.31;67.35;101115.25;1676508;84;21072;-89
2022/04/22 01:35:32;;;;;;;13.20;7.12;;;;;;;9.30;67.36;101111.25;1630431;85;21801;-89
2022/04/22 01:37:59;;;;;;;18.20;7.45;;;;;;;9.27;67.41;101114.67;1663936;85;21070;-88
2022/04/22 01:40:26;;;;;;;16.07;7.47;;;;;;;9.26;67.53;101106.30;1655812;85;21950;-88
2022/04/22 01:42:55;;;;;;;17.07;6.97;;;;;;;9.24;67.55;101104.05;1675592;84;21051;-89
2022/04/22 01:45:22;;;;;;;12.50;6.87;;;;;;;9.24;67.64;101101.42;1662593;85;21090;-89
2022/04/22 01:47:49;;;;;;;14.68;7.08;;;;;;;9.23;67.62;101099.61;1657676;85;21796;-89
2022/04/22 01:50:16;;;;;;;13.85;6.70;;;;;;;9.23;67.65;101111.44;1677274;85;21087;-87
2022/04/22 01:52:43;;;;;;;11.43;6.95;;;;;;;9.24;67.68;101106.67;1665186;84;21054;-89
2022/04/22 01:55:10;;;;;;;18.20;6.97;;;;;;;9.24;67.67;101112.35;1672878;85;21183;-89
2022/04/22 01:57:39;;;;;;;12.82;6.10;;;;;;;9.26;67.67;101108.93;1660073;85;21082;-91
2022/04/22 02:00:08;;;;;;;11.97;6.03;;;;;;;9.31;67.65;101114.37;1636171;87;22010;-89
2022/04/22 02:02:35;;;;;;;12.10;6.55;;;;;;;9.21;67.56;101093.42;1644531;85;21620;-89
2022/04/22 02:05:03;;;;;;;17.05;7.83;;;;;;;9.36;67.51;101118.45;1677348;85;21166;-89
2022/04/22 02:07:30;;;;;;;24.95;11.30;;;;;;;9.38;67.41;101113.72;1672545;85;21181;-90
2022/04/22 02:09:57;;;;;;;36.63;20.48;;;;;;;9.40;67.40;101109.41;1676624;85;21159;-88
2022/04/22 02:12:23;;;;;;;18.25;8.93;;;;;;;9.41;67.34;101116.47;1675483;85;21783;-89
2022/04/22 02:14:50;;;;;;;15.03;6.42;;;;;;;9.42;67.33;101109.08;1669520;85;21082;-89
2022/04/22 02:17:18;;;;;;;12.23;5.60;;;;;;;9.43;67.30;101113.47;1678037;85;21126;-89
2022/04/22 02:19:45;;;;;;;12.13;5.60;;;;;;;9.44;67.28;101112.64;1690421;83;21074;-89
2022/04/22 02:22:14;;;;;;;10.28;5.83;;;;;;;9.46;67.29;101110.97;1676660;85;21058;-88
2022/04/22 02:24:41;;;;;;;23.75;8.50;;;;;;;9.47;67.22;101105.28;1675134;85;21780;-88
2022/04/22 02:29:53;;;;;;;13.38;6.92;;;;;;;9.53;67.17;101113.37;1656555;85;21558;-89
2022/04/22 02:32:20;;;;;;;11.65;6.55;;;;;;;9.57;67.13;101111.74;1653212;85;21287;-89
2022/04/22 02:34:47;;;;;;;15.78;7.10;;;;;;;9.59;67.07;101118.86;1653637;86;21131;-88
2022/04/22 02:37:15;;;;;;;11.90;6.47;;;;;;;9.59;67.00;101118.86;1678048;84;21987;-87
2022/04/22 02:39:42;;;;;;;12.68;6.42;;;;;;;9.58;66.99;101120.12;1676440;85;21607;-91
2022/04/22 02:47:41;;;;;;;12.95;6.28;;;;;;;9.51;66.90;101126.45;1621855;87;21089;-88
2022/04/22 02:50:09;;;;;;;9.70;5.60;;;;;;;9.45;66.90;101120.98;1619667;87;22673;-89
2022/04/22 02:52:36;;;;;;;10.48;6.50;;;;;;;9.40;66.94;101125.17;1618408;87;21048;-90
2022/04/22 02:55:03;;;;;;;12.55;6.35;;;;;;;9.33;66.95;101127.14;1618730;87;21127;-88
2022/04/22 02:57:30;;;;;;;12.80;6.78;;;;;;;9.27;66.97;101136.08;1618369;87;21148;-88
2022/04/22 03:00:01;;;;;;;13.15;6.58;;;;;;;9.18;67.09;101135.34;1622830;87;21943;-88
2022/04/22 03:02:27;;;;;;;13.83;6.53;;;;;;;9.10;67.14;101142.95;1613304;88;21863;-89
2022/04/22 03:04:54;;;;;;;10.98;5.80;;;;;;;9.02;67.26;101140.44;1623008;87;21598;-89
2022/04/22 03:07:25;;;;;;;12.28;6.00;;;;;;;8.93;67.38;101138.37;1624267;86;21093;-89
2022/04/22 03:09:50;;;;;;;14.60;6.03;;;;;;;8.88;67.45;101147.80;1638230;86;21066;-89
2022/04/22 03:12:17;;;;;;;15.08;6.20;;;;;;;8.83;67.50;101147.15;1593671;89;21887;-89
2022/04/22 03:14:44;;;;;;;11.55;5.87;;;;;;;8.77;67.58;101150.86;1621316;87;21811;-90
2022/04/22 03:17:16;;;;;;;15.15;6.10;;;;;;;8.71;67.64;101153.72;1603958;87;21127;-88
2022/04/22 03:19:42;;;;;;;10.43;6.25;;;;;;;8.68;67.73;101160.57;1666019;85;21070;-89
2022/04/22 03:22:27;;;;;;;12.53;6.47;;;;;;;8.65;67.79;101155.19;1677870;85;21166;-89
2022/04/22 03:25:49;;;;;;;11.20;6.20;;;;;;;8.61;67.82;101154.17;1650600;86;21091;-88
2022/04/22 03:28:16;;;;;;;9.60;6.50;;;;;;;8.59;67.83;101156.27;1654386;85;22494;-87
2022/04/22 03:30:43;;;;;;;10.25;6.03;;;;;;;8.55;67.88;101153.94;1676197;83;21723;-88
2022/04/22 03:33:12;;;;;;;6.97;5.25;;;;;;;8.54;67.88;101160.03;1636053;86;21117;-90
2022/04/22 03:36:20;;;;;;;9.58;6.17;;;;;;;8.54;67.89;101154.80;1675448;83;21114;-87
2022/04/22 03:38:46;;;;;;;8.85;6.00;;;;;;;8.57;67.91;101149.64;1672131;84;21094;-87
2022/04/22 03:41:13;;;;;;;10.70;6.25;;;;;;;8.58;67.89;101148.83;1671079;85;22647;-88
2022/04/22 03:43:43;;;;;;;8.58;6.00;;;;;;;8.64;67.86;101158.23;1677170;84;21153;-89
2022/04/22 03:46:09;;;;;;;8.58;5.87;;;;;;;8.68;67.83;101160.57;1675737;84;21110;-90
2022/04/22 03:48:36;;;;;;;7.60;5.53;;;;;;;8.72;67.77;101158.54;1669926;85;21110;-88
2022/04/22 03:51:03;;;;;;;8.43;5.72;;;;;;;8.75;67.73;101162.17;1668792;85;21023;-90
2022/04/22 03:53:30;;;;;;;9.75;6.30;;;;;;;8.98;68.24;101158.23;1675241;85;21892;-89
2022/04/22 03:58:10;;;;;;;10.15;5.92;;;;;;;9.76;68.78;101156.25;1677068;85;21137;-88
2022/04/22 03:58:26;;;;;;;9.20;5.08;;;;;;;10.60;68.19;101157.27;1677273;83;21086;-90
2022/04/22 04:00:53;;;;;;;11.78;5.97;;;;;;;11.31;67.42;101155.00;1667551;85;21098;-89
2022/04/22 04:03:23;;;;;;;9.23;5.50;;;;;;;12.09;66.91;101156.25;1672366;85;21082;-91
2022/04/22 04:05:51;;;;;;;9.35;5.10;;;;;;;12.83;65.92;101155.34;1676000;84;21794;-90
2022/04/22 04:08:22;;;;;;;6.67;5.00;;;;;;;13.56;65.10;101162.63;1677769;85;21127;-88
2022/04/22 04:16:19;;;;;;;5.87;3.98;;;;;;;16.30;62.47;101149.63;1665645;85;21090;-88
2022/04/22 04:18:45;;;;;;;5.35;3.62;;;;;;;17.29;60.80;101147.12;1673923;85;22568;-85
2022/04/22 04:23:57;;;;;;;7.78;3.92;;;;;;;18.65;58.41;101158.82;1699631;83;21098;-86
2022/04/22 04:26:25;;;;;;;4.33;3.60;;;;;;;19.30;56.93;101169.34;1694875;83;21084;-87
2022/04/22 04:28:55;;;;;;;4.12;3.12;;;;;;;19.70;55.66;101169.13;1674829;85;21074;-88
2022/04/22 04:31:22;;;;;;;4.05;3.20;;;;;;;20.16;55.01;101164.85;1671616;85;21776;-89
2022/04/22 04:33:53;;;;;;;3.77;2.77;;;;;;;20.42;53.71;101169.06;1678572;85;21123;-88
2022/04/22 04:36:18;;;;;;;4.47;3.15;;;;;;;20.70;52.61;101167.95;1675795;85;21130;-88
2022/04/22 04:38:44;;;;;;;4.42;2.80;;;;;;;21.08;52.11;101173.33;1676661;85;21707;-92
2022/04/22 04:41:29;;;;;;;7.20;2.85;;;;;;;21.26;50.75;101174.00;1678119;85;21170;-93
2022/04/22 04:44:11;;;;;;;;;;;;;;;;;;;;;
2022/04/22 04:46:29;;;;;;;3.87;2.60;;;;;;;22.17;49.69;101175.41;1670489;85;21090;-90
2022/04/22 04:48:58;;;;;;;3.67;2.60;;;;;;;22.22;48.68;101182.47;1677359;85;21106;-89
2022/04/22 04:51:24;;;;;;;2.77;2.40;;;;;;;22.35;47.91;101179.16;1671912;85;21084;-90
2022/04/22 04:53:51;;;;;;;2.98;2.22;;;;;;;22.40;47.33;101180.44;1677351;85;21115;-91
2022/04/22 04:56:17;;;;;;;3.58;2.40;;;;;;;22.74;46.85;101180.72;1676340;84;21754;-90
2022/04/22 04:58:44;;;;;;;3.20;2.52;;;;;;;23.08;46.02;101189.49;1674625;83;21081;-88
2022/04/22 05:01:11;;;;;;;3.47;2.52;;;;;;;23.16;45.65;101183.53;1672734;84;21139;-92
2022/04/22 05:03:39;;;;;;;2.92;2.30;;;;;;;23.79;45.56;101190.25;1677744;85;21076;-89
2022/04/22 05:06:06;;;;;;;4.90;2.58;;;;;;;24.00;44.44;101191.54;1676199;84;21098;-89
2022/04/22 05:08:35;;;;;;;3.40;2.40;;;;;;;24.13;44.11;101188.57;1676244;85;21778;-88
2022/04/22 05:11:14;;;;;;;3.92;2.15;;;;;;;24.30;43.46;101182.30;1638027;87;21437;-90
2022/04/22 05:13:38;;;;;;;2.98;1.80;;;;;;;24.26;42.72;101190.91;1650030;85;21103;-90
2022/04/22 05:16:05;;;;;;;2.47;2.20;;;;;;;24.28;42.21;101181.46;1676497;85;21131;-90
2022/04/22 05:18:32;;;;;;;3.40;2.50;;;;;;;23.92;41.66;101204.30;1677167;85;21093;-90
2022/04/22 05:20:58;;;;;;;2.87;2.10;;;;;;;23.08;41.30;101205.60;1678861;85;21780;-90
2022/04/22 05:23:25;;;;;;;2.80;2.10;;;;;;;21.74;41.06;101200.63;1673428;85;21070;-89
2022/04/22 05:25:52;;;;;;;2.35;2.00;;;;;;;20.41;41.18;101210.09;1679438;85;21086;-89
2022/04/22 05:28:39;;;;;;;2.65;2.00;;;;;;;18.89;41.86;101207.72;1676549;85;21071;-89
2022/04/22 05:33:51;;;;;;;2.40;2.08;;;;;;;17.04;43.87;101214.84;1677606;85;22045;-90
2022/04/22 05:36:21;;;;;;;2.30;2.10;;;;;;;16.19;44.68;101216.37;1679337;85;21123;-90
2022/04/22 05:38:52;;;;;;;2.60;2.25;;;;;;;15.59;45.60;101207.30;1657855;81;76980;-87
2022/04/22 05:41:21;;;;;;;2.55;2.17;;;;;;;15.15;46.28;101209.85;1645665;84;21590;-86
2022/04/22 05:43:48;;;;;;;2.95;2.10;;;;;;;14.70;46.85;101212.30;1642633;85;21101;-86
2022/04/22 05:46:14;;;;;;;3.50;2.60;;;;;;;14.30;47.54;101208.97;1619504;85;21770;-86
2022/04/22 05:48:43;;;;;;;3.02;2.70;;;;;;;13.87;48.17;101200.67;1615244;85;21736;-86
2022/04/22 05:51:12;;;;;;;2.80;2.60;;;;;;;13.62;48.80;101205.50;1642710;85;21249;-87
2022/04/22 05:53:46;;;;;;;5.37;2.90;;;;;;;13.34;49.33;101216.83;1613990;86;21169;-87
2022/04/22 05:56:10;;;;;;;4.65;2.80;;;;;;;13.15;49.92;101211.98;1622073;86;21074;-87
2022/04/22 05:58:42;;;;;;;3.40;2.60;;;;;;;12.97;50.42;101216.01;1623156;85;22696;-87
2022/04/22 06:01:08;;;;;;;3.40;2.80;;;;;;;12.90;50.94;101218.48;1646598;85;21078;-87
2022/04/22 06:03:35;;;;;;;3.40;2.95;;;;;;;12.78;51.28;101225.27;1639528;85;21990;-86
2022/04/22 06:06:02;;;;;;;5.72;2.92;;;;;;;12.74;51.79;101227.34;1609988;86;21165;-86
2022/04/22 06:11:14;;;;;;;5.00;3.22;;;;;;;12.45;52.04;101239.85;1645390;85;22661;-86
2022/04/22 06:13:41;;;;;;;3.98;3.15;;;;;;;12.20;52.53;101235.27;1642889;85;21567;-86
2022/04/22 06:16:08;;;;;;;4.58;3.10;;;;;;;12.09;52.99;101230.14;1611928;85;21223;-87
2022/04/22 06:18:35;;;;;;;3.80;2.70;;;;;;;11.97;53.28;101233.31;1617903;86;21185;-86
2022/04/22 06:21:02;;;;;;;3.77;2.70;;;;;;;11.94;53.78;101237.21;1616983;85;21225;-87
2022/04/22 06:23:29;;;;;;;4.22;3.02;;;;;;;11.93;53.98;101234.53;1619195;86;21799;-87
2022/04/22 06:25:56;;;;;;;5.10;2.90;;;;;;;11.87;54.20;101227.31;1622716;86;21738;-86
2022/04/22 06:28:24;;;;;;;3.52;2.52;;;;;;;11.88;54.54;101230.42;1614694;86;21134;-87
2022/04/22 06:30:51;;;;;;;3.40;2.80;;;;;;;11.87;54.66;101236.10;1607226;86;21458;-86
2022/04/22 06:33:19;;;;;;;3.02;2.55;;;;;;;11.89;54.91;101233.95;1628101;86;21634;-87
2022/04/22 06:35:49;;;;;;;3.30;2.58;;;;;;;11.92;54.98;101234.05;1642476;86;22495;-86
2022/04/22 06:38:21;;;;;;;3.00;2.70;;;;;;;11.98;55.18;101235.55;1639080;86;21384;-87
2022/04/22 06:46:21;;;;;;;2.95;2.30;;;;;;;12.61;55.31;101253.91;1605409;87;21671;-87
2022/04/22 06:48:49;;;;;;;2.85;2.42;;;;;;;12.70;55.06;101254.98;1644929;86;22347;-87
2022/04/22 06:51:22;;;;;;;2.62;2.42;;;;;;;12.82;55.31;101249.57;1645773;85;21089;-87
2022/04/22 06:53:45;;;;;;;4.45;2.65;;;;;;;12.96;55.17;101259.12;1636822;85;21220;-88
2022/04/22 06:56:13;;;;;;;2.55;2.17;;;;;;;13.00;55.12;101248.20;1642076;85;21162;-88
2022/04/22 06:58:50;;;;;;;;;;;;;;;;;;;;;
2022/04/22 07:01:15;;;;;;;3.52;2.30;;;;;;;13.28;55.09;101248.83;1642399;85;21832;-86
2022/04/22 07:03:42;;;;;;;6.30;2.60;;;;;;;13.44;55.09;101247.02;1651357;85;21103;-86
2022/04/22 07:06:09;;;;;;;2.98;2.47;;;;;;;13.66;55.02;101248.77;1628072;86;21137;-87
2022/04/22 07:08:37;;;;;;;4.78;2.60;;;;;;;13.68;54.71;101253.23;1609198;86;21078;-88
2022/04/22 07:11:04;;;;;;;2.10;1.80;;;;;;;13.75;54.81;101256.91;1639259;85;22418;-87
2022/04/22 07:13:32;;;;;;;4.28;2.00;;;;;;;13.84;54.53;101249.15;1640683;86;21726;-86
2022/04/22 07:15:59;;;;;;;1.75;1.62;;;;;;;13.84;54.19;101249.15;1634615;86;21244;-87
2022/04/22 07:18:26;;;;;;;3.12;2.17;;;;;;;13.89;54.02;101243.52;1603389;87;21710;-86
2022/04/22 07:20:54;;;;;;;2.95;1.80;;;;;;;13.97;53.92;101252.93;1637801;84;21117;-87
2022/04/22 07:23:21;;;;;;;2.52;1.87;;;;;;;13.87;53.57;101249.22;1632074;86;21104;-87
2022/04/22 07:25:48;;;;;;;2.12;1.77;;;;;;;13.84;53.65;101256.20;1608682;84;21771;-87
2022/04/22 07:28:16;;;;;;;3.17;2.37;;;;;;;13.87;53.79;101256.24;1608185;86;21020;-87
2022/04/22 07:30:46;;;;;;;2.20;1.70;;;;;;;13.92;53.69;101258.12;1610359;86;21122;-87
2022/04/22 07:33:12;;;;;;;2.47;1.90;;;;;;;13.91;53.72;101256.35;1631500;86;21632;-87
2022/04/22 07:35:39;;;;;;;3.27;1.90;;;;;;;13.99;53.62;101249.88;1620400;86;21173;-86
2022/04/22 07:38:10;;;;;;;3.35;1.80;;;;;;;13.95;53.54;101254.22;1613774;87;22637;-87
2022/04/22 07:40:37;;;;;;;2.33;1.90;;;;;;;14.06;53.49;101253.52;1590973;88;21792;-86
2022/04/22 07:48:35;;;;;;;3.72;2.42;;;;;;;14.13;53.09;101252.77;1635847;85;21187;-86
2022/04/22 07:51:02;;;;;;;4.40;2.22;;;;;;;14.24;53.08;101252.53;1628236;86;22790;-87
2022/04/22 07:53:29;;;;;;;2.98;2.33;;;;;;;14.31;52.93;101256.20;1606944;86;21461;-88
2022/04/22 07:55:56;;;;;;;2.22;1.60;;;;;;;14.35;53.04;101249.64;1612317;85;21273;-88
2022/04/22 07:58:23;;;;;;;2.30;1.82;;;;;;;14.48;52.82;101252.52;1621557;85;21532;-86
2022/04/22 08:00:50;;;;;;;6.17;1.87;;;;;;;14.63;52.71;101246.62;1609694;85;21463;-85
2022/04/22 08:03:19;;;;;;;2.37;2.08;;;;;;;14.80;52.58;101245.56;1619910;86;21074;-86
2022/04/22 08:05:48;;;;;;;3.00;2.20;;;;;;;15.03;52.44;101248.11;1654328;86;21014;-86
2022/04/22 08:08:14;;;;;;;3.77;2.00;;;;;;;15.25;51.89;101247.11;1648702;85;21095;-87
2022/04/22 08:10:41;;;;;;;4.60;1.72;;;;;;;15.20;51.46;101252.33;1649840;85;21079;-87
2022/04/22 08:13:08;;;;;;;2.75;2.17;;;;;;;15.23;51.42;101247.08;1640370;85;21085;-88
2022/04/22 08:15:35;;;;;;;2.52;1.82;;;;;;;15.22;51.07;101247.05;1617149;86;22581;-86
2022/04/22 08:18:02;;;;;;;2.72;2.30;;;;;;;15.00;51.00;101221.58;1621797;85;21142;-86
2022/04/22 08:20:32;;;;;;;2.30;1.90;;;;;;;14.96;51.00;101239.64;1679510;84;21695;-87
2022/04/22 08:23:01;;;;;;;2.52;2.10;;;;;;;14.92;51.24;101242.67;1654383;84;21157;-87
2022/04/22 08:25:28;;;;;;;3.52;2.25;;;;;;;14.99;51.41;101240.10;1657896;84;21146;-87
2022/04/22 08:27:55;;;;;;;2.22;2.02;;;;;;;15.20;51.53;101235.53;1643689;84;21829;-87
2022/04/22 08:30:23;;;;;;;2.95;2.02;;;;;;;15.27;51.30;101235.63;1648190;84;21119;-86
2022/04/22 08:32:50;;;;;;;2.95;2.50;;;;;;;15.31;51.21;101237.45;1675827;84;21551;-86
2022/04/22 08:35:17;;;;;;;2.98;2.52;;;;;;;15.38;51.05;101244.19;1677783;84;21385;-87
2022/04/22 08:37:45;;;;;;;3.55;2.67;;;;;;;15.27;50.85;101239.61;1677769;84;21335;-87
2022/04/22 08:40:13;;;;;;;6.17;3.33;;;;;;;15.20;50.87;101234.20;1635547;85;22532;-87
2022/04/22 08:42:46;;;;;;;2.90;2.58;;;;;;;15.15;50.99;101236.81;1676572;84;21125;-88
2022/04/22 08:45:13;;;;;;;4.72;2.65;;;;;;;15.00;50.65;101240.13;1662197;84;21130;-87
2022/04/22 08:50:30;;;;;;;3.60;2.27;;;;;;;14.56;50.87;101245.17;1629916;85;21111;-86
2022/04/22 08:53:07;;;;;;;3.77;2.95;;;;;;;14.30;51.18;101244.72;1625767;86;23673;-86
2022/04/22 08:55:34;;;;;;;2.83;2.60;;;;;;;14.28;51.17;101239.80;1621148;86;21134;-87
2022/04/22 08:58:08;;;;;;;8.73;3.27;;;;;;;14.21;51.34;101240.58;1646540;85;21209;-87
2022/04/22 09:00:35;;;;;;;4.97;2.80;;;;;;;14.26;51.55;101233.59;1641670;85;21118;-86
2022/04/22 09:03:02;;;;;;;3.05;2.70;;;;;;;14.43;51.50;101228.58;1604048;87;21426;-87
2022/04/22 09:05:29;;;;;;;3.10;2.77;;;;;;;14.63;51.63;101233.37;1674327;84;22363;-88
2022/04/22 09:07:56;;;;;;;3.58;2.92;;;;;;;14.83;51.25;101225.30;1677392;84;21082;-87
2022/04/22 09:10:23;;;;;;;4.40;2.58;;;;;;;14.90;51.01;101228.51;1657835;84;21513;-88
2022/04/22 09:12:54;;;;;;;3.27;2.83;;;;;;;15.05;50.89;101230.91;1665148;84;21099;-88
2022/04/22 09:15:28;;;;;;;5.55;2.40;;;;;;;15.10;50.50;101239.38;1661978;84;21098;-88
2022/04/22 09:18:00;;;;;;;3.85;2.75;;;;;;;15.15;50.18;101229.73;1592260;86;21830;-87
2022/04/22 09:20:30;;;;;;;2.72;2.33;;;;;;;15.30;50.11;101237.45;1673449;83;21592;-87
2022/04/22 09:22:58;;;;;;;5.42;2.77;;;;;;;15.35;49.99;101234.00;1664414;84;21111;-87
2022/04/22 09:25:30;;;;;;;3.20;2.90;;;;;;;15.35;49.63;101236.65;1646455;85;21045;-87
2022/04/22 09:28:13;;;;;;;3.77;3.33;;;;;;;15.34;49.35;101228.66;1616582;86;21110;-87
2022/04/22 09:30:42;;;;;;;3.22;2.92;;;;;;;15.29;49.05;101226.37;1676514;84;21830;-87
2022/04/22 09:33:09;;;;;;;2.65;2.45;;;;;;;15.28;48.95;101228.59;1645977;84;21119;-86
2022/04/22 09:42:38;;;;;;;4.08;2.92;;;;;;;15.29;48.87;101229.03;1626072;85;21146;-87
2022/04/22 09:43:45;;;;;;;3.98;3.50;;;;;;;15.02;47.77;101221.60;1627687;85;22607;-88
2022/04/22 09:46:20;;;;;;;4.00;3.55;;;;;;;14.87;47.39;101218.30;1645860;85;21146;-86
2022/04/22 09:48:49;;;;;;;4.55;3.70;;;;;;;14.69;47.76;101216.23;1624799;86;21066;-88
2022/04/22 09:51:23;;;;;;;5.37;3.55;;;;;;;14.56;47.56;101221.33;1647725;85;21099;-87
2022/04/22 09:54:09;;;;;;;4.62;3.33;;;;;;;14.43;47.42;101225.05;1650965;86;21103;-88
2022/04/22 09:56:38;;;;;;;6.35;3.65;;;;;;;14.38;47.61;101235.14;1646969;84;21722;-88
2022/04/22 09:59:31;;;;;;;4.22;3.83;;;;;;;14.38;47.47;101216.60;1678445;84;21748;-87
2022/04/22 10:01:58;;;;;;;5.33;3.77;;;;;;;14.30;47.04;101225.27;1608574;86;21120;-87
2022/04/22 10:04:26;;;;;;;4.33;3.65;;;;;;;14.18;47.19;101218.02;1623518;86;21024;-87
2022/04/22 10:06:53;;;;;;;5.90;3.52;;;;;;;14.22;47.19;101222.49;1655817;84;21148;-87
2022/04/22 10:09:19;;;;;;;5.62;3.65;;;;;;;14.21;46.93;101219.41;1674946;83;21815;-87
2022/04/22 10:11:47;;;;;;;5.75;4.50;;;;;;;14.24;47.04;101220.76;1658815;84;21107;-87
2022/04/22 10:14:15;;;;;;;4.30;3.90;;;;;;;14.29;46.85;101226.16;1676606;84;21090;-88
2022/04/22 10:16:43;;;;;;;4.85;3.95;;;;;;;14.29;46.62;101222.19;1682076;84;21078;-87
2022/04/22 10:19:10;;;;;;;5.05;4.10;;;;;;;14.29;46.73;101228.36;1652841;84;21277;-88
2022/04/22 10:21:36;;;;;;;4.67;4.28;;;;;;;14.38;46.79;101225.88;1648183;84;22156;-87
2022/04/22 10:24:08;;;;;;;3.75;3.45;;;;;;;14.53;46.86;101229.22;1648891;86;21106;-86
2022/04/22 10:26:35;;;;;;;7.12;4.80;;;;;;;14.64;46.78;101225.45;1645805;85;21179;-87
2022/04/22 10:29:02;;;;;;;6.72;4.22;;;;;;;14.80;47.01;101221.27;1644406;85;21007;-85
2022/04/22 10:31:36;;;;;;;5.03;4.37;;;;;;;14.60;46.63;101153.39;1624220;86;21646;-87
2022/04/22 10:34:07;;;;;;;4.40;3.85;;;;;;;15.04;46.57;101224.72;1642364;85;22611;-88
2022/04/22 10:36:40;;;;;;;5.10;3.75;;;;;;;15.11;46.24;101229.25;1645183;85;21154;-86
2022/04/22 10:39:10;;;;;;;4.50;4.10;;;;;;;15.19;46.04;101220.51;1601802;86;21112;-87
2022/04/22 10:41:48;;;;;;;5.65;4.15;;;;;;;15.22;45.74;101210.84;1644229;85;21350;-87
2022/04/22 10:47:15;;;;;;;4.42;4.03;;;;;;;15.31;45.67;101210.05;1615776;86;21974;-88
2022/04/22 10:49:46;;;;;;;4.62;3.83;;;;;;;15.33;45.41;101213.20;1647601;85;21138;-86
2022/04/22 10:52:22;;;;;;;5.00;3.85;;;;;;;15.28;45.28;101217.98;1635898;86;21591;-86
2022/04/22 10:55:01;;;;;;;4.10;3.77;;;;;;;15.30;45.34;101215.80;1639434;85;21438;-87
2022/04/22 10:57:33;;;;;;;5.00;4.00;;;;;;;15.32;46.08;101225.11;1615179;87;21213;-87
2022/04/22 11:00:11;;;;;;;8.38;4.65;;;;;;;15.30;46.85;101216.23;1625630;86;22776;-87
2022/04/22 11:02:41;;;;;;;6.83;4.22;;;;;;;15.34;47.14;101199.05;1612867;86;21597;-88
2022/04/22 11:05:30;;;;;;;4.50;4.10;;;;;;;15.46;47.10;101214.21;1676305;84;21090;-88
2022/04/22 11:07:58;;;;;;;5.60;4.30;;;;;;;15.25;46.79;101207.33;1624498;85;21170;-88
2022/04/22 11:10:55;;;;;;;5.30;4.65;;;;;;;14.93;47.14;101209.09;1648180;83;21091;-85
2022/04/22 11:13:42;;;;;;;4.33;3.83;;;;;;;14.71;47.43;101203.45;1621046;85;21868;-86
2022/04/22 11:16:32;;;;;;;7.15;4.42;;;;;;;14.60;47.65;101206.37;1631724;85;21741;-87
2022/04/22 11:19:21;;;;;;;4.42;4.03;;;;;;;14.50;47.89;101201.78;1654291;84;21090;-87
2022/04/22 11:21:52;;;;;;;8.73;7.30;;;;;;;14.30;47.89;101197.47;1644169;85;21172;-86
2022/04/22 11:24:33;;;;;;;6.30;4.40;;;;;;;14.16;48.20;101195.92;1612377;87;21109;-87
2022/04/22 11:27:12;;;;;;;6.62;5.25;;;;;;;14.13;48.51;101188.83;1620906;87;21859;-86
2022/04/22 11:29:47;;;;;;;8.48;5.22;;;;;;;14.10;48.23;101194.05;1644223;86;21762;-87
2022/04/22 11:32:24;;;;;;;9.60;5.33;;;;;;;14.05;48.33;101210.28;1638512;86;21187;-86
2022/04/22 11:35:10;;;;;;;5.70;5.12;;;;;;;14.03;48.47;101202.75;1644207;85;21091;-86
2022/04/22 11:37:42;;;;;;;6.17;4.97;;;;;;;14.07;48.60;101193.11;1619285;85;21520;-87
2022/04/22 11:40:18;;;;;;;7.05;4.10;;;;;;;14.18;48.43;101188.89;1615186;86;21848;-86
2022/04/22 11:42:45;;;;;;;14.07;7.87;;;;;;;14.23;48.31;101191.19;1625072;85;21078;-86
2022/04/22 11:45:15;;;;;;;5.75;4.65;;;;;;;14.22;48.17;101180.57;1612237;87;21082;-87
2022/04/22 11:47:42;;;;;;;5.05;4.55;;;;;;;14.14;47.65;101180.00;1620722;86;21093;-87
2022/04/22 11:50:12;;;;;;;5.45;4.60;;;;;;;14.06;47.97;101182.05;1618380;85;21766;-87
2022/04/22 11:52:40;;;;;;;8.28;5.42;;;;;;;14.05;47.95;101171.90;1620269;86;21887;-87
2022/04/22 11:55:08;;;;;;;6.08;5.47;;;;;;;14.05;47.82;101177.19;1607484;87;21581;-86
2022/04/22 11:57:39;;;;;;;5.37;4.87;;;;;;;14.06;47.83;101182.96;1620440;86;21469;-87
2022/04/22 12:05:48;;;;;;;6.25;4.92;;;;;;;13.98;47.10;101186.80;1618354;86;21787;-87
2022/04/22 12:08:15;;;;;;;5.20;4.70;;;;;;;14.01;47.05;101181.98;1603458;86;21120;-86
2022/04/22 12:10:47;;;;;;;5.17;4.33;;;;;;;14.02;47.04;101188.16;1622062;85;21091;-87
2022/04/22 12:13:15;;;;;;;4.80;4.40;;;;;;;14.00;46.94;101182.42;1629628;85;21102;-87
2022/04/22 12:15:46;;;;;;;4.78;3.98;;;;;;;14.02;46.99;101180.22;1630398;85;21541;-86
2022/04/22 12:18:33;;;;;;;5.55;4.05;;;;;;;14.09;47.15;101167.55;1626302;86;21824;-86
2022/04/22 12:21:00;;;;;;;4.65;4.12;;;;;;;14.11;46.75;101174.64;1599253;87;21635;-86
2022/04/22 12:23:34;;;;;;;8.28;4.12;;;;;;;14.13;46.74;101182.20;1641084;85;21185;-86
2022/04/22 12:26:01;;;;;;;4.80;4.35;;;;;;;14.16;46.50;101166.80;1641696;85;21077;-86
2022/04/22 12:28:35;;;;;;;7.28;4.62;;;;;;;14.12;46.11;101178.20;1622180;86;21094;-86
2022/04/22 12:31:08;;;;;;;4.97;4.05;;;;;;;14.06;46.39;101178.08;1643150;86;21797;-87
2022/04/22 12:37:24;;;;;;;5.22;4.10;;;;;;;14.09;45.97;101179.46;1516857;89;25367;-89
2022/04/22 12:59:51;;;;;;;5.67;4.70;;;;;;;14.04;46.62;101160.87;1452116;94;21279;-85